createdAt,value
2018-07-05T08:24:45.855Z,37.48
2018-07-05T08:27:14.201Z,37.60
2018-07-05T08:29:41.735Z,34.67
2018-07-05T08:32:09.483Z,36.34
2018-07-05T08:34:37.392Z,37.02
2018-07-05T08:37:04.950Z,37.99
2018-07-05T08:39:32.662Z,35.95
2018-07-05T08:42:00.352Z,35.70
2018-07-05T08:44:28.204Z,35.81
2018-07-05T08:46:55.844Z,35.46
2018-07-05T08:49:23.332Z,34.57
2018-07-05T08:51:50.896Z,35.83
2018-07-05T08:54:18.466Z,35.41
2018-07-05T08:56:45.863Z,35.90
2018-07-05T08:59:14.004Z,35.79
2018-07-05T09:01:41.967Z,35.52
2018-07-05T09:04:09.490Z,35.49
2018-07-05T09:06:37.062Z,36.17
2018-07-05T09:09:05.427Z,36.63
2018-07-05T09:11:33.795Z,36.62
2018-07-05T09:14:01.174Z,36.24
2018-07-05T09:16:28.960Z,35.46
2018-07-05T09:18:56.565Z,35.04
2018-07-05T09:21:23.906Z,34.70
2018-07-05T09:23:51.270Z,34.60
2018-07-05T09:26:18.623Z,35.41
2018-07-05T09:28:46.001Z,33.08
2018-07-05T09:31:14.675Z,33.24
2018-07-05T09:33:42.024Z,34.78
2018-07-05T09:36:09.970Z,34.85
2018-07-05T09:38:37.325Z,33.53
2018-07-05T09:41:05.041Z,33.44
2018-07-05T09:43:32.719Z,33.79
2018-07-05T09:46:00.299Z,33.77
2018-07-05T09:48:27.723Z,33.03
2018-07-05T09:50:55.180Z,32.60
2018-07-05T09:53:22.749Z,33.00
2018-07-05T09:55:50.921Z,32.42
2018-07-05T09:58:18.518Z,31.44
2018-07-05T10:00:49.154Z,31.95
2018-07-05T10:03:18.855Z,32.13
2018-07-05T10:05:46.715Z,32.64
2018-07-05T10:08:17.330Z,33.85
2018-07-05T10:10:44.956Z,33.36
2018-07-05T10:13:12.985Z,34.00
2018-07-05T10:15:40.752Z,33.42
2018-07-05T10:18:08.915Z,32.65
2018-07-05T10:20:36.356Z,32.05
2018-07-05T10:23:03.772Z,32.64
2018-07-05T10:25:31.646Z,31.53
2018-07-05T10:27:59.314Z,31.96
2018-07-05T10:30:39.948Z,31.07
2018-07-05T10:33:20.035Z,30.78
2018-07-05T10:35:47.487Z,29.20
2018-07-05T10:38:16.088Z,28.91
2018-07-05T10:40:56.376Z,30.84
2018-07-05T10:43:36.028Z,30.37
2018-07-05T10:46:15.912Z,30.97
2018-07-05T10:48:56.605Z,29.72
2018-07-05T10:51:37.236Z,28.77
2018-07-05T10:54:17.382Z,29.31
2018-07-05T10:56:57.332Z,28.41
2018-07-05T10:59:36.985Z,27.83
2018-07-05T11:02:17.111Z,27.47
2018-07-05T11:04:57.025Z,28.04
2018-07-05T11:07:36.788Z,27.46
2018-07-05T11:10:16.685Z,26.70
2018-07-05T11:12:56.663Z,25.82
2018-07-05T11:15:36.559Z,26.17
2018-07-05T11:18:16.788Z,24.41
2018-07-05T11:20:56.774Z,25.75
2018-07-05T11:23:37.857Z,26.48
2018-07-05T11:26:18.185Z,26.27
2018-07-05T11:28:57.977Z,25.67
2018-07-05T11:31:37.604Z,25.61
2018-07-05T11:34:17.402Z,25.93
2018-07-05T11:36:57.258Z,23.82
2018-07-05T11:39:36.945Z,25.19
2018-07-05T11:42:17.143Z,23.38
2018-07-05T11:44:56.995Z,23.09
2018-07-05T11:47:36.867Z,24.07
2018-07-05T11:50:16.834Z,25.02
2018-07-05T11:52:56.548Z,24.15
2018-07-05T11:55:36.334Z,24.41
2018-07-05T11:58:16.251Z,22.83
2018-07-05T12:00:56.286Z,23.59
2018-07-05T12:03:36.236Z,22.52
2018-07-05T12:06:16.457Z,22.00
2018-07-05T12:08:56.491Z,23.02
2018-07-05T12:11:36.310Z,23.15
2018-07-05T12:14:16.323Z,24.02
2018-07-05T12:16:56.432Z,24.24
2018-07-05T12:19:36.943Z,23.87
2018-07-05T12:22:16.840Z,23.18
2018-07-05T12:24:57.546Z,22.67
2018-07-05T12:27:37.564Z,22.06
2018-07-05T12:30:17.443Z,23.09
2018-07-05T12:32:57.449Z,22.76
2018-07-05T12:35:37.634Z,22.84
2018-07-05T12:38:17.342Z,22.72
2018-07-05T12:40:57.447Z,24.02
2018-07-05T12:43:37.581Z,22.50
2018-07-05T12:46:17.476Z,23.19
2018-07-05T12:48:57.252Z,23.39
2018-07-05T12:51:36.918Z,24.58
2018-07-05T12:54:16.792Z,22.17
2018-07-05T12:56:57.136Z,22.65
2018-07-05T12:59:37.077Z,23.18
2018-07-05T13:02:17.847Z,23.44
2018-07-05T13:04:57.885Z,23.25
2018-07-05T13:07:37.811Z,22.97
2018-07-05T13:10:17.562Z,22.67
2018-07-05T13:12:57.411Z,21.87
2018-07-05T13:15:37.195Z,22.70
2018-07-05T13:18:17.435Z,24.50
2018-07-05T13:20:57.608Z,22.66
2018-07-05T13:23:37.406Z,22.33
2018-07-05T13:26:17.138Z,24.35
2018-07-05T13:28:56.954Z,23.53
2018-07-05T13:31:36.663Z,23.53
2018-07-05T13:34:16.302Z,23.65
2018-07-05T13:36:56.226Z,22.89
2018-07-05T13:39:36.277Z,22.81
2018-07-05T13:42:17.068Z,22.41
2018-07-05T13:44:56.783Z,21.97
2018-07-05T13:47:37.630Z,24.13
2018-07-05T13:50:17.639Z,23.00
2018-07-05T13:52:57.463Z,23.83
2018-07-05T13:55:37.327Z,23.90
2018-07-05T13:58:17.170Z,22.70
2018-07-05T14:00:57.207Z,23.08
2018-07-05T14:03:37.231Z,22.50
2018-07-05T14:06:17.004Z,22.30
2018-07-05T14:08:57.689Z,21.51
2018-07-05T14:11:37.654Z,21.75
2018-07-05T14:14:17.698Z,22.88
2018-07-05T14:16:57.570Z,20.91
2018-07-05T14:19:37.263Z,22.08
2018-07-05T14:22:17.283Z,20.73
2018-07-05T14:24:57.145Z,21.20
2018-07-05T14:27:37.041Z,21.46
2018-07-05T14:30:16.896Z,21.31
2018-07-05T14:32:56.778Z,21.35
2018-07-05T14:35:36.530Z,21.95
2018-07-05T14:38:16.188Z,22.51
2018-07-05T14:40:56.121Z,23.93
2018-07-05T14:43:35.989Z,25.88
2018-07-05T14:46:16.132Z,26.64
2018-07-05T14:48:55.913Z,26.95
2018-07-05T14:51:36.022Z,28.33
2018-07-05T14:54:15.798Z,29.14
2018-07-05T14:56:56.992Z,29.27
2018-07-05T14:59:36.862Z,29.41
2018-07-05T15:02:16.635Z,30.58
2018-07-05T15:04:58.045Z,28.80
2018-07-05T15:07:37.804Z,30.35
2018-07-05T15:10:17.445Z,31.04
2018-07-05T15:12:57.618Z,31.39
2018-07-05T15:15:37.430Z,31.22
2018-07-05T15:18:17.645Z,31.53
2018-07-05T15:20:58.275Z,30.80
2018-07-05T15:23:37.998Z,32.11
2018-07-05T15:26:18.027Z,32.05
2018-07-05T15:28:57.941Z,32.26
2018-07-05T15:31:38.127Z,30.76
2018-07-05T15:34:17.973Z,30.71
2018-07-05T15:36:57.881Z,30.43
2018-07-05T15:39:37.862Z,31.71
2018-07-05T15:42:17.647Z,31.43
2018-07-05T15:44:57.725Z,29.27
2018-07-05T15:47:37.805Z,29.36
2018-07-05T15:50:17.855Z,28.05
2018-07-05T15:52:57.704Z,29.02
2018-07-05T15:55:37.699Z,28.78
2018-07-05T15:58:17.509Z,28.60
2018-07-05T16:00:57.427Z,30.78
2018-07-05T16:03:37.114Z,31.18
2018-07-05T16:06:17.174Z,32.56
2018-07-05T16:08:56.860Z,30.54
2018-07-05T16:11:36.908Z,31.31
2018-07-05T16:14:16.561Z,29.17
2018-07-05T16:16:56.880Z,30.35
2018-07-05T16:19:37.451Z,30.28
2018-07-05T16:22:17.623Z,31.91
2018-07-05T16:24:57.512Z,32.27
2018-07-05T16:27:37.360Z,31.83
2018-07-05T16:30:17.238Z,32.81
2018-07-05T16:32:57.837Z,29.97
2018-07-05T16:35:37.454Z,27.79
2018-07-05T16:38:17.768Z,29.88
2018-07-05T16:40:57.637Z,31.05
2018-07-05T16:43:37.475Z,33.05
2018-07-05T16:46:17.313Z,32.95
2018-07-05T16:48:57.507Z,34.67
2018-07-05T16:51:37.963Z,35.27
2018-07-05T16:54:17.679Z,34.13
2018-07-05T16:56:57.818Z,35.20
2018-07-05T16:59:37.590Z,34.77
2018-07-05T17:02:18.378Z,34.66
2018-07-05T17:04:58.071Z,35.12
2018-07-05T17:07:37.871Z,34.91
2018-07-05T17:10:18.534Z,35.86
2018-07-05T17:12:58.871Z,36.45
2018-07-05T17:15:38.859Z,35.60
2018-07-05T17:18:19.203Z,36.43
2018-07-05T17:20:58.923Z,36.11
2018-07-05T17:23:38.690Z,35.52
2018-07-05T17:26:19.514Z,36.09
2018-07-05T17:28:59.696Z,35.53
2018-07-05T17:31:40.279Z,36.49
2018-07-05T17:34:20.353Z,36.06
2018-07-05T17:37:00.200Z,35.96
2018-07-05T17:39:40.001Z,36.25
2018-07-05T17:42:19.913Z,34.85
2018-07-05T17:44:59.727Z,35.60
2018-07-05T17:47:39.636Z,38.09
2018-07-05T17:50:19.696Z,38.51
2018-07-05T17:52:59.392Z,37.19
2018-07-05T17:55:39.139Z,39.46
2018-07-05T17:58:19.043Z,37.56
2018-07-05T18:00:59.277Z,37.21
2018-07-05T18:03:39.242Z,37.79
2018-07-05T18:06:19.789Z,37.89
2018-07-05T18:09:00.431Z,38.69
2018-07-05T18:11:40.552Z,38.62
2018-07-05T18:14:20.854Z,38.33
2018-07-05T18:17:00.829Z,38.39
2018-07-05T18:19:40.553Z,38.85
2018-07-05T18:22:21.257Z,38.55
2018-07-05T18:25:01.598Z,39.10
2018-07-05T18:27:41.568Z,39.16
2018-07-05T18:30:21.811Z,39.63
2018-07-05T18:33:01.811Z,39.63
2018-07-05T18:35:42.315Z,39.54
2018-07-05T18:38:21.896Z,40.43
2018-07-05T18:41:01.728Z,41.36
2018-07-05T18:43:41.918Z,40.30
2018-07-05T18:46:22.017Z,40.77
2018-07-05T18:49:01.833Z,40.63
2018-07-05T18:51:41.793Z,40.58
2018-07-05T18:54:21.660Z,40.66
2018-07-05T18:57:02.202Z,41.66
2018-07-05T18:59:43.281Z,41.15
2018-07-05T19:02:22.902Z,41.20
2018-07-05T19:05:03.018Z,42.12
2018-07-05T19:07:42.909Z,42.03
2018-07-05T19:10:23.387Z,43.18
2018-07-05T19:13:03.370Z,43.22
2018-07-05T19:15:43.282Z,43.72
2018-07-05T19:18:23.143Z,43.68
2018-07-05T19:21:03.248Z,43.36
2018-07-05T19:23:43.237Z,43.48
2018-07-05T19:26:30.015Z,43.84
2018-07-05T19:29:10.014Z,44.46
2018-07-05T19:31:50.009Z,44.89
2018-07-05T19:34:29.828Z,45.67
2018-07-05T19:37:09.895Z,46.17
2018-07-05T19:39:50.914Z,46.66
2018-07-05T19:42:30.725Z,46.50
2018-07-05T19:45:10.475Z,46.73
2018-07-05T19:47:50.257Z,47.65
2018-07-05T19:50:30.240Z,48.09
2018-07-05T19:53:10.070Z,48.07
2018-07-05T19:55:49.908Z,47.82
2018-07-05T19:58:29.723Z,48.97
2018-07-05T20:01:09.463Z,49.87
2018-07-05T20:03:49.308Z,49.44
2018-07-05T20:06:29.190Z,49.90
2018-07-05T20:09:09.355Z,50.51
2018-07-05T20:11:54.819Z,50.68
2018-07-05T20:14:34.739Z,50.56
2018-07-05T20:17:15.079Z,50.50
2018-07-05T20:19:55.037Z,51.64
2018-07-05T20:22:35.743Z,51.62
2018-07-05T20:25:17.209Z,50.58
2018-07-05T20:27:57.294Z,51.23
2018-07-05T20:30:37.066Z,50.56
2018-07-05T20:33:17.062Z,50.72
2018-07-05T20:35:57.071Z,51.69
2018-07-05T20:38:37.140Z,51.87
2018-07-05T20:41:17.962Z,52.77
2018-07-05T20:43:57.939Z,52.89
2018-07-05T20:46:38.262Z,52.88
2018-07-05T20:49:18.216Z,52.31
2018-07-05T20:51:59.017Z,53.01
2018-07-05T20:54:38.698Z,53.50
2018-07-05T20:57:18.440Z,53.84
2018-07-05T20:59:58.790Z,53.91
2018-07-05T21:02:38.728Z,54.28
2018-07-05T21:05:18.673Z,53.76
2018-07-05T21:07:58.666Z,53.87
2018-07-05T21:10:38.590Z,53.46
2018-07-05T21:13:18.523Z,54.19
2018-07-05T21:15:58.350Z,54.76
2018-07-05T21:18:38.172Z,55.00
2018-07-05T21:21:18.414Z,55.53
2018-07-05T21:23:58.414Z,55.80
2018-07-05T21:29:27.293Z,56.01
2018-07-05T21:32:07.357Z,56.09
2018-07-05T21:34:47.502Z,56.29
2018-07-05T21:37:27.142Z,56.27
2018-07-05T21:40:06.996Z,56.85
2018-07-05T21:42:47.034Z,56.97
2018-07-05T21:45:28.035Z,57.17
2018-07-05T21:48:07.858Z,57.29
2018-07-05T21:50:48.312Z,57.76
2018-07-05T21:53:28.103Z,57.92
2018-07-05T21:56:08.027Z,58.53
2018-07-05T21:58:47.834Z,58.74
2018-07-05T22:01:27.555Z,59.07
2018-07-05T22:04:07.339Z,59.58
2018-07-05T22:06:47.154Z,60.28
2018-07-05T22:09:27.058Z,60.90
2018-07-05T22:12:07.091Z,61.00
2018-07-05T22:14:47.339Z,60.95
2018-07-05T22:17:32.355Z,62.35
2018-07-05T22:20:17.227Z,62.57
2018-07-05T22:23:02.438Z,61.96
2018-07-05T22:25:47.651Z,62.72
2018-07-05T22:28:32.819Z,62.90
2018-07-05T22:31:18.847Z,62.89
2018-07-05T22:33:58.509Z,63.67
2018-07-05T22:36:38.347Z,64.32
2018-07-05T22:39:18.216Z,64.70
2018-07-05T22:41:58.291Z,65.45
2018-07-05T22:44:37.855Z,64.62
2018-07-05T22:47:17.655Z,64.99
2018-07-05T22:49:57.232Z,65.64
2018-07-05T22:52:37.051Z,65.43
2018-07-05T22:55:17.070Z,66.06
2018-07-05T22:57:57.184Z,66.16
2018-07-05T23:00:36.839Z,66.38
2018-07-05T23:03:16.595Z,67.12
2018-07-05T23:05:56.320Z,67.70
2018-07-05T23:08:35.985Z,67.51
2018-07-05T23:11:15.780Z,67.08
2018-07-05T23:13:56.237Z,68.01
2018-07-05T23:16:35.874Z,68.47
2018-07-05T23:19:15.594Z,68.27
2018-07-05T23:21:55.610Z,68.73
2018-07-05T23:24:35.622Z,68.91
2018-07-05T23:27:15.650Z,68.55
2018-07-05T23:29:55.571Z,68.03
2018-07-05T23:32:35.578Z,68.93
2018-07-05T23:35:15.310Z,68.88
2018-07-05T23:37:55.031Z,68.45
2018-07-05T23:40:34.858Z,68.75
2018-07-05T23:43:14.407Z,69.37
2018-07-05T23:45:54.388Z,69.14
2018-07-05T23:48:34.427Z,69.77
2018-07-05T23:51:14.146Z,69.67
2018-07-05T23:53:53.870Z,69.88
2018-07-05T23:56:33.678Z,69.28
2018-07-05T23:59:13.638Z,70.48
